Van Metre, South Dakota
Current Conditions -  °F | °C
As of 4:53 AM on Saturday 25 Oct 2014 (Local Time) from KPIR Reporting Station
Clear Clear  
Wind Chill: 39°   Ceiling: Unl
Heat Index: 43°   Visibility: 10mi
Dew Point: 34°   Wind: 7mph
Humidity: 71%   Direction: 330°NNW
Pressure: 30.11"   Gusts: NA
Location:  43.9557°N, 100.703°W
Report Text: KPIR 250953Z AUTO 33006KT 10SM CLR 06/01 A3011 RMK AO2 SLP192 T00610011
Loading
Personal Weather Stations






























Interactive Weather Map
Tropical Storm Tracking
New forecast layout! Learn more

10-Day Weather Forecast

Advertisements
Track Severe Weather on mobile